createdAt,value
2022-11-06T00:04:39.015Z,24.00
2022-11-06T00:09:40.692Z,23.13
2022-11-06T00:14:42.271Z,20.35
2022-11-06T00:19:43.916Z,21.70
2022-11-06T00:24:45.589Z,19.85
2022-11-06T00:29:47.220Z,16.73
2022-11-06T00:34:48.821Z,18.35
2022-11-06T00:39:50.660Z,20.42
2022-11-06T00:44:52.287Z,26.67
2022-11-06T00:49:53.941Z,19.25
2022-11-06T00:54:55.537Z,17.20
2022-11-06T00:59:57.249Z,14.75
2022-11-06T01:04:58.880Z,14.98
2022-11-06T01:10:00.545Z,14.80
2022-11-06T01:15:02.642Z,16.27
2022-11-06T01:20:04.747Z,16.88
2022-11-06T01:25:07.063Z,14.95
2022-11-06T01:30:09.162Z,14.10
2022-11-06T01:35:12.013Z,15.38
2022-11-06T01:40:13.911Z,11.40
2022-11-06T01:45:24.412Z,16.20
2022-11-06T01:50:26.172Z,15.48
2022-11-06T01:55:40.547Z,12.90
2022-11-06T02:00:43.178Z,17.85
2022-11-06T02:05:45.206Z,16.25
2022-11-06T02:10:47.069Z,16.58
2022-11-06T02:16:12.026Z,19.75
2022-11-06T02:21:25.408Z,17.95
2022-11-06T02:26:45.717Z,14.63
2022-11-06T02:31:47.920Z,19.30
2022-11-06T02:36:57.375Z,14.10
2022-11-06T02:41:59.835Z,16.60
2022-11-06T02:47:05.906Z,18.40
2022-11-06T02:52:23.866Z,14.90
2022-11-06T02:57:26.987Z,14.40
2022-11-06T03:02:33.467Z,15.73
2022-11-06T03:07:38.982Z,17.05
2022-11-06T03:12:59.107Z,17.80
2022-11-06T03:18:11.772Z,16.73
2022-11-06T03:23:36.334Z,19.13
2022-11-06T03:28:50.302Z,17.05
2022-11-06T03:33:55.309Z,17.40
2022-11-06T03:39:01.075Z,14.25
2022-11-06T03:44:04.690Z,18.90
2022-11-06T03:49:10.727Z,15.88
2022-11-06T03:54:15.549Z,16.80
2022-11-06T03:59:23.293Z,14.05
2022-11-06T04:04:34.124Z,17.95
2022-11-06T04:09:56.592Z,18.60
2022-11-06T04:14:59.496Z,16.20
2022-11-06T04:20:03.127Z,18.33
2022-11-06T04:25:32.748Z,16.63
2022-11-06T04:30:40.719Z,21.15
2022-11-06T04:36:18.481Z,15.30
2022-11-06T04:41:34.896Z,16.55
2022-11-06T04:46:47.604Z,14.32
2022-11-06T04:51:49.422Z,12.68
2022-11-06T04:56:51.077Z,11.43
2022-11-06T05:01:52.967Z,14.70
2022-11-06T05:06:54.787Z,16.70
2022-11-06T05:11:56.406Z,18.38
2022-11-06T05:16:58.090Z,16.55
2022-11-06T05:22:18.356Z,15.90
2022-11-06T05:27:19.947Z,14.30
2022-11-06T05:32:21.543Z,16.90
2022-11-06T05:37:23.201Z,20.27
2022-11-06T05:42:24.833Z,18.25
2022-11-06T05:47:26.549Z,19.35
2022-11-06T05:52:28.552Z,17.23
2022-11-06T05:57:30.161Z,22.13
2022-11-06T06:02:31.937Z,19.20
2022-11-06T06:07:33.720Z,19.10
2022-11-06T06:12:35.364Z,20.40
2022-11-06T06:17:37.007Z,18.60
2022-11-06T06:22:38.649Z,23.83
2022-11-06T06:27:40.400Z,24.90
2022-11-06T06:32:42.084Z,25.85
2022-11-06T06:37:50.596Z,25.17
2022-11-06T06:42:55.154Z,22.83
2022-11-06T06:48:04.532Z,27.58
2022-11-06T06:53:06.127Z,25.80
2022-11-06T06:58:07.799Z,27.67
2022-11-06T07:03:10.033Z,29.23
2022-11-06T07:08:11.886Z,28.33
2022-11-06T07:13:13.818Z,29.75
2022-11-06T07:18:16.007Z,29.30
2022-11-06T07:23:18.006Z,29.00
2022-11-06T07:28:20.281Z,23.05
2022-11-06T07:33:21.886Z,29.58
2022-11-06T07:38:27.901Z,25.50
2022-11-06T07:43:29.599Z,25.83
2022-11-06T07:48:31.781Z,27.40
2022-11-06T07:53:33.516Z,19.88
2022-11-06T07:58:35.410Z,19.02
2022-11-06T08:03:37.473Z,18.48
2022-11-06T08:08:39.404Z,21.90
2022-11-06T08:13:41.320Z,19.00
2022-11-06T08:18:43.449Z,20.00
2022-11-06T08:23:45.688Z,18.75
2022-11-06T08:28:47.451Z,18.05
2022-11-06T08:33:49.310Z,17.23
2022-11-06T08:38:50.980Z,22.73
2022-11-06T08:43:55.511Z,18.48
2022-11-06T08:48:57.636Z,16.67
2022-11-06T08:53:59.661Z,21.23
2022-11-06T08:59:01.390Z,18.83
2022-11-06T09:04:03.189Z,16.02
2022-11-06T09:09:04.818Z,22.17
2022-11-06T09:14:06.576Z,17.40
2022-11-06T09:19:08.287Z,16.38
2022-11-06T09:24:10.001Z,14.23
2022-11-06T09:29:11.686Z,11.43
2022-11-06T09:34:13.295Z,16.48
2022-11-06T09:39:15.113Z,13.60
2022-11-06T09:44:39.395Z,13.10
2022-11-06T09:49:52.333Z,12.48
2022-11-06T09:54:59.353Z,11.82
2022-11-06T10:00:05.249Z,15.82
2022-11-06T10:05:25.912Z,13.63
2022-11-06T10:10:56.746Z,11.75
2022-11-06T10:16:04.761Z,10.00
2022-11-06T10:21:20.929Z,12.48
2022-11-06T10:26:33.556Z,10.88
2022-11-06T10:31:49.255Z,10.27
2022-11-06T10:37:12.279Z,9.50
2022-11-06T10:42:35.174Z,8.25
2022-11-06T10:47:47.145Z,9.68
2022-11-06T10:52:54.685Z,6.53
2022-11-06T10:58:02.396Z,5.82
2022-11-06T11:03:06.744Z,7.25
2022-11-06T11:08:28.562Z,5.80
2022-11-06T11:13:30.221Z,5.35
2022-11-06T11:18:34.670Z,4.88
2022-11-06T11:23:36.321Z,7.88
2022-11-06T11:28:38.489Z,3.75
2022-11-06T11:33:42.157Z,3.92
2022-11-06T11:38:44.233Z,5.00
2022-11-06T11:44:09.517Z,5.00
2022-11-06T11:49:26.448Z,5.07
2022-11-06T11:54:30.733Z,3.45
2022-11-06T11:59:43.957Z,4.10
2022-11-06T12:04:49.763Z,4.05
2022-11-06T12:09:51.468Z,3.28
2022-11-06T12:15:21.191Z,5.68
2022-11-06T12:20:42.890Z,4.25
2022-11-06T12:25:48.980Z,4.22
2022-11-06T12:31:01.680Z,4.20
2022-11-06T12:36:07.586Z,2.85
2022-11-06T12:41:41.500Z,4.47
2022-11-06T12:47:26.621Z,4.72
2022-11-06T12:52:43.514Z,3.47
2022-11-06T12:58:25.376Z,5.22
2022-11-06T13:03:53.706Z,4.03
2022-11-06T13:14:11.342Z,3.80
2022-11-06T13:19:25.188Z,4.82
2022-11-06T13:24:49.729Z,4.28
2022-11-06T13:29:51.663Z,4.32
2022-11-06T13:34:55.071Z,4.00
2022-11-06T13:40:06.747Z,3.95
2022-11-06T13:45:09.945Z,4.65
2022-11-06T13:50:33.192Z,5.43
2022-11-06T13:55:56.364Z,6.50
2022-11-06T14:01:04.173Z,6.35
2022-11-06T14:06:08.432Z,10.43
2022-11-06T14:11:16.376Z,6.47
2022-11-06T14:16:17.890Z,9.57
2022-11-06T14:21:37.667Z,8.60
2022-11-06T14:26:44.597Z,7.90
2022-11-06T14:32:24.164Z,6.70
2022-11-06T14:37:30.583Z,7.35
2022-11-06T14:42:38.364Z,7.40
2022-11-06T14:47:45.903Z,8.25
2022-11-06T14:52:51.164Z,9.95
2022-11-06T14:57:54.447Z,12.85
2022-11-06T15:02:56.076Z,12.80
2022-11-06T15:08:05.069Z,12.73
2022-11-06T15:24:26.695Z,17.45
2022-11-06T15:29:31.605Z,15.93
2022-11-06T15:34:36.803Z,16.67
2022-11-06T15:39:43.328Z,14.90
2022-11-06T15:49:47.484Z,17.17
2022-11-06T15:54:56.880Z,16.80
2022-11-06T16:00:18.386Z,17.77
2022-11-06T16:05:20.714Z,18.52
2022-11-06T16:10:23.072Z,18.63
2022-11-06T16:15:43.086Z,18.70
2022-11-06T16:20:47.145Z,21.42
2022-11-06T16:25:48.937Z,17.92
2022-11-06T16:30:50.617Z,19.70
2022-11-06T16:36:06.558Z,20.10
2022-11-06T16:41:08.546Z,20.10
2022-11-06T16:46:11.184Z,19.83
2022-11-06T16:51:14.933Z,21.63
2022-11-06T16:56:22.577Z,22.23
2022-11-06T17:01:24.779Z,25.20
2022-11-06T17:06:29.363Z,23.30
2022-11-06T17:11:31.564Z,24.83
2022-11-06T17:16:45.654Z,22.23
2022-11-06T17:21:48.294Z,23.33
2022-11-06T17:26:52.956Z,22.73
2022-11-06T17:31:55.795Z,23.73
2022-11-06T17:36:57.385Z,23.33
2022-11-06T17:41:58.983Z,23.08
2022-11-06T17:47:01.993Z,24.63
2022-11-06T17:52:03.789Z,22.52
2022-11-06T17:57:07.214Z,24.23
2022-11-06T18:02:12.943Z,25.33
2022-11-06T18:07:14.907Z,26.42
2022-11-06T18:12:17.541Z,22.35
2022-11-06T18:17:19.236Z,21.80
2022-11-06T18:22:22.311Z,29.25
2022-11-06T18:27:23.927Z,25.38
2022-11-06T18:32:25.525Z,24.88
2022-11-06T18:37:27.118Z,25.05
2022-11-06T18:42:28.718Z,27.15
2022-11-06T18:47:30.398Z,25.90
2022-11-06T18:52:57.821Z,24.23
2022-11-06T18:57:59.976Z,21.83
2022-11-06T19:03:01.640Z,28.58
2022-11-06T19:08:04.075Z,29.48
2022-11-06T19:13:06.321Z,27.65
2022-11-06T19:18:08.562Z,25.63
2022-11-06T19:23:14.634Z,25.98
2022-11-06T19:28:17.387Z,24.10
2022-11-06T19:33:19.056Z,22.75
2022-11-06T19:38:21.560Z,21.52
2022-11-06T19:43:23.445Z,29.90
2022-11-06T19:48:25.100Z,23.88
2022-11-06T19:53:27.199Z,23.17
2022-11-06T19:58:29.277Z,26.35
2022-11-06T20:03:30.859Z,20.30
2022-11-06T20:08:33.781Z,22.80
2022-11-06T20:13:39.173Z,22.52
2022-11-06T20:18:41.083Z,21.25
2022-11-06T20:23:55.732Z,22.92
2022-11-06T20:29:03.467Z,20.13
2022-11-06T20:34:10.982Z,20.92
2022-11-06T20:39:15.240Z,20.35
2022-11-06T20:44:16.841Z,22.33
2022-11-06T20:49:18.527Z,22.83
2022-11-06T20:54:23.158Z,21.42
2022-11-06T20:59:24.961Z,22.48
2022-11-06T21:04:26.581Z,19.92
2022-11-06T21:09:28.188Z,19.60
2022-11-06T21:14:30.260Z,23.08
2022-11-06T21:19:33.101Z,19.67
2022-11-06T21:24:34.696Z,23.95
2022-11-06T21:29:37.870Z,23.92
2022-11-06T21:34:39.460Z,20.45
2022-11-06T21:39:51.294Z,22.63
2022-11-06T21:44:55.672Z,20.40
2022-11-06T21:49:57.309Z,18.85
2022-11-06T21:55:17.334Z,25.80
2022-11-06T22:00:19.064Z,19.25
2022-11-06T22:05:20.682Z,22.35
2022-11-06T22:10:22.531Z,22.38
2022-11-06T22:15:24.274Z,21.67
2022-11-06T22:20:26.070Z,20.60
2022-11-06T22:25:27.706Z,21.77
2022-11-06T22:30:29.335Z,20.08
2022-11-06T22:35:30.995Z,15.98
2022-11-06T22:40:32.653Z,21.55
2022-11-06T22:45:34.305Z,18.65
2022-11-06T22:50:36.544Z,14.50
2022-11-06T22:55:38.199Z,15.93
2022-11-06T23:00:39.966Z,16.30
2022-11-06T23:05:41.727Z,20.48
2022-11-06T23:10:44.144Z,14.57
2022-11-06T23:15:45.908Z,19.08
2022-11-06T23:20:47.568Z,13.27
2022-11-06T23:25:49.346Z,14.60
2022-11-06T23:30:51.030Z,14.75
2022-11-06T23:35:52.678Z,16.00
2022-11-06T23:40:55.144Z,11.77
2022-11-06T23:45:58.568Z,14.18
2022-11-06T23:51:00.232Z,12.98
2022-11-06T23:56:06.767Z,14.23
